Time;durP1;ratioP1;P1;durP2;ratioP2;P2;SDS_P1;SDS_P2;PMS_P1;PMS_P2;Temp;Humidity;BMP_temperature;BMP_pressure;BME280_temperature;BME280_humidity;BME280_pressure;Samples;Min_cycle;Max_cycle;Signal;HPM_P1;HPM_P2
2023/03/20 00:00:59;;;;;;;0.43;0.43;;;;;;;8.18;80.20;99903.75;5032574;28;20203;-65
2023/03/20 00:03:26;;;;;;;0.50;0.50;;;;;;;8.15;80.34;99896.13;5043794;28;20196;-65
2023/03/20 00:05:54;;;;;;;0.50;0.50;;;;;;;8.12;80.78;99888.50;5041972;28;20201;-64
2023/03/20 00:08:21;;;;;;;0.40;0.40;;;;;;;8.08;81.16;99891.94;5039215;28;20585;-64
2023/03/20 00:10:48;;;;;;;0.60;0.60;;;;;;;7.99;81.44;99886.97;5032521;28;20616;-64
2023/03/20 00:13:22;;;;;;;0.50;0.50;;;;;;;7.93;81.89;99880.22;5049174;28;20585;-65
2023/03/20 00:15:48;;;;;;;1.90;1.50;;;;;;;7.86;82.39;99880.31;5030921;28;20259;-64
2023/03/20 00:18:18;;;;;;;0.90;0.90;;;;;;;7.81;82.66;99875.28;5039805;28;20208;-65
2023/03/20 00:20:45;;;;;;;0.63;0.63;;;;;;;7.69;82.95;99857.53;5043933;28;20240;-64
2023/03/20 00:23:15;;;;;;;0.50;0.50;;;;;;;7.73;83.29;99871.09;5038479;28;20247;-64
2023/03/20 00:25:43;;;;;;;0.53;0.53;;;;;;;7.71;83.65;99865.19;5036037;28;20216;-65
2023/03/20 00:28:31;;;;;;;0.90;0.90;;;;;;;7.63;83.31;99865.25;5038919;28;20215;-64
2023/03/20 00:30:58;;;;;;;0.60;0.60;;;;;;;7.66;83.62;99872.88;5033945;28;20208;-64
2023/03/20 00:33:25;;;;;;;0.50;0.50;;;;;;;7.63;83.59;99865.25;5045882;28;20745;-65
2023/03/20 00:35:52;;;;;;;0.67;0.67;;;;;;;7.61;83.60;99868.69;5043951;28;20735;-64
2023/03/20 00:38:20;;;;;;;0.60;0.60;;;;;;;7.52;83.13;99846.69;5038058;28;20212;-65
2023/03/20 00:40:47;;;;;;;0.50;0.50;;;;;;;7.61;83.19;99858.50;5042097;28;20288;-64
2023/03/20 00:43:16;;;;;;;0.40;0.40;;;;;;;7.59;83.64;99857.69;5046732;28;20268;-64
2023/03/20 00:45:45;;;;;;;0.80;0.80;;;;;;;7.52;84.11;99853.50;5040171;28;20271;-64
2023/03/20 00:48:15;;;;;;;0.60;0.60;;;;;;;7.48;84.83;99851.81;5037526;28;20573;-65
2023/03/20 00:50:42;;;;;;;0.70;0.70;;;;;;;7.45;85.28;99846.75;5040533;28;20256;-65
2023/03/20 00:53:10;;;;;;;0.50;0.50;;;;;;;7.44;84.88;99850.16;5034209;28;20578;-65
2023/03/20 00:55:40;;;;;;;0.67;0.67;;;;;;;7.33;85.04;99837.53;5041561;28;20644;-64
2023/03/20 00:58:07;;;;;;;0.50;0.50;;;;;;;7.39;85.07;99851.06;5036797;28;20712;-65
2023/03/20 01:00:39;;;;;;;0.50;0.50;;;;;;;7.38;84.52;99851.94;5042122;28;20578;-64
2023/03/20 01:03:15;;;;;;;0.50;0.50;;;;;;;7.30;84.18;99852.88;5039255;28;20638;-64
2023/03/20 01:05:42;;;;;;;0.70;0.70;;;;;;;7.12;83.81;99830.94;5037255;28;20212;-64
2023/03/20 01:08:15;;;;;;;0.70;0.70;;;;;;;7.20;84.36;99846.16;5036835;28;20197;-64
2023/03/20 01:10:45;;;;;;;0.57;0.57;;;;;;;7.15;84.99;99843.66;5036445;28;20279;-65
2023/03/20 01:13:19;;;;;;;0.50;0.50;;;;;;;7.11;85.19;99857.28;5042266;28;20201;-65
2023/03/20 01:15:47;;;;;;;0.50;0.50;;;;;;;7.09;85.42;99843.72;5042506;28;20250;-65
2023/03/20 01:18:15;;;;;;;0.50;0.50;;;;;;;7.05;85.33;99846.28;5036123;28;20259;-64
2023/03/20 01:20:42;;;;;;;0.90;0.90;;;;;;;7.03;85.77;99840.38;5041676;28;20213;-64
2023/03/20 01:23:10;;;;;;;0.57;0.57;;;;;;;6.88;85.79;99828.63;5042226;28;20201;-64
2023/03/20 01:25:37;;;;;;;0.60;0.60;;;;;;;6.96;85.69;99836.19;5036033;28;20197;-65
2023/03/20 01:28:14;;;;;;;0.60;0.60;;;;;;;6.94;85.92;99838.75;5037915;28;20197;-64
2023/03/20 01:30:41;;;;;;;0.70;0.70;;;;;;;6.90;86.12;99838.78;5041664;28;20228;-64
2023/03/20 01:33:13;;;;;;;0.80;0.80;;;;;;;6.84;85.91;99832.03;5041815;28;20385;-64
2023/03/20 01:35:40;;;;;;;0.63;0.63;;;;;;;6.86;85.42;99835.41;5044891;28;20217;-64
2023/03/20 01:38:12;;;;;;;0.60;0.60;;;;;;;6.83;84.62;99830.34;5042344;28;20212;-64
2023/03/20 01:40:49;;;;;;;0.67;0.67;;;;;;;6.80;84.44;99830.38;5043038;28;20212;-64
2023/03/20 01:43:20;;;;;;;3.70;1.30;;;;;;;6.79;84.28;99831.22;5036218;28;20205;-64
2023/03/20 01:45:56;;;;;;;0.60;0.60;;;;;;;6.75;84.99;99827.03;5044538;28;20197;-65
2023/03/20 01:48:27;;;;;;;0.50;0.50;;;;;;;6.73;84.71;99829.56;5041861;28;20200;-64
2023/03/20 01:50:54;;;;;;;0.50;0.50;;;;;;;6.72;85.03;99829.59;5039545;28;20201;-64
2023/03/20 01:53:24;;;;;;;0.80;0.80;;;;;;;6.70;85.29;99823.66;5034164;28;20283;-64
2023/03/20 01:55:55;;;;;;;0.50;0.50;;;;;;;6.67;85.11;99823.69;5034445;28;20304;-64
2023/03/20 01:58:32;;;;;;;0.60;0.60;;;;;;;6.65;85.46;99830.50;5039769;28;20205;-64
2023/03/20 02:01:00;;;;;;;0.60;0.60;;;;;;;6.55;85.60;99808.50;5044184;28;20250;-65
2023/03/20 02:03:27;;;;;;;0.70;0.70;;;;;;;6.64;85.30;99826.25;5047913;28;20575;-65
2023/03/20 02:05:55;;;;;;;0.67;0.67;;;;;;;6.60;85.46;99827.97;5040142;28;20735;-64
2023/03/20 02:08:27;;;;;;;0.60;0.60;;;;;;;6.59;85.99;99822.91;5048314;28;20232;-65
2023/03/20 02:10:55;;;;;;;0.50;0.50;;;;;;;6.56;85.84;99825.47;5047068;28;20197;-64
2023/03/20 02:13:26;;;;;;;0.50;0.50;;;;;;;6.51;85.09;99827.19;5042035;28;20196;-64
2023/03/20 02:15:59;;;;;;;0.50;0.50;;;;;;;6.48;85.20;99829.75;5043155;28;20608;-65
2023/03/20 02:18:26;;;;;;;0.60;0.60;;;;;;;6.41;85.48;99821.31;5045806;28;20204;-64
2023/03/20 02:21:20;;;;;;;0.50;0.50;;;;;;;6.39;85.33;99825.59;5045166;28;20232;-65
2023/03/20 02:24:09;;;;;;;0.50;0.50;;;;;;;6.37;85.42;99811.16;5034239;28;20196;-65
2023/03/20 02:26:49;;;;;;;0.70;0.70;;;;;;;6.33;85.84;99823.09;5044584;28;20728;-64
2023/03/20 02:29:45;;;;;;;0.53;0.53;;;;;;;6.28;85.79;99820.56;5034589;28;20281;-64
2023/03/20 02:32:46;;;;;;;0.60;0.60;;;;;;;6.23;85.81;99816.34;5042850;28;20319;-64
2023/03/20 02:35:36;;;;;;;0.60;0.60;;;;;;;6.19;85.79;99815.53;5037625;28;20216;-64
2023/03/20 02:38:33;;;;;;;0.60;0.60;;;;;;;6.16;85.51;99815.53;5041129;28;20670;-64
2023/03/20 02:41:13;;;;;;;0.60;0.60;;;;;;;6.10;85.66;99815.59;5042179;28;20197;-64
2023/03/20 02:43:49;;;;;;;0.70;0.70;;;;;;;6.03;85.14;99811.38;5040421;28;20291;-64
2023/03/20 02:46:29;;;;;;;0.60;0.60;;;;;;;5.99;85.15;99812.25;5040722;28;20216;-64
2023/03/20 02:49:01;;;;;;;0.60;0.60;;;;;;;5.74;84.83;99767.38;5032830;28;20288;-67
2023/03/20 02:51:37;;;;;;;0.80;0.80;;;;;;;5.81;84.01;99805.53;5031194;28;20200;-66
2023/03/20 02:54:10;;;;;;;1.13;1.13;;;;;;;5.79;83.79;99808.91;5030412;28;20201;-66
2023/03/20 02:56:48;;;;;;;0.60;0.60;;;;;;;5.68;83.87;99810.66;5033673;28;20228;-66
2023/03/20 02:59:23;;;;;;;0.70;0.70;;;;;;;5.51;84.36;99807.31;5039749;28;20204;-66
2023/03/20 03:01:55;;;;;;;0.70;0.70;;;;;;;5.34;83.88;99789.56;5033393;28;20661;-67
2023/03/20 03:04:28;;;;;;;0.63;0.63;;;;;;;5.32;84.70;99810.78;5029976;28;20216;-66
2023/03/20 03:06:58;;;;;;;0.70;0.70;;;;;;;5.24;85.25;99804.00;5041686;28;20573;-66
2023/03/20 03:09:31;;;;;;;0.70;0.70;;;;;;;5.23;86.04;99802.31;5041102;28;20275;-66
2023/03/20 03:12:03;;;;;;;0.70;0.70;;;;;;;5.09;85.94;99777.78;5039414;28;20638;-67
2023/03/20 03:14:37;;;;;;;0.70;0.70;;;;;;;5.10;86.07;99780.34;5030783;28;20248;-66
2023/03/20 03:17:06;;;;;;;2.27;2.17;;;;;;;5.19;86.16;99794.72;5032224;28;20205;-67
2023/03/20 03:19:36;;;;;;;0.70;0.70;;;;;;;5.24;86.01;99804.00;5032247;28;20194;-66
2023/03/20 03:22:03;;;;;;;0.60;0.60;;;;;;;5.24;86.08;99796.38;5032328;28;20198;-67
2023/03/20 03:24:34;;;;;;;0.70;0.70;;;;;;;5.26;85.81;99801.47;5041941;28;20201;-66
2023/03/20 03:27:03;;;;;;;0.60;0.60;;;;;;;5.25;85.48;99805.72;5052712;28;20283;-66
2023/03/20 03:29:34;;;;;;;1.37;1.37;;;;;;;5.22;85.74;99800.63;5042861;28;20240;-66
2023/03/20 03:32:03;;;;;;;0.67;0.67;;;;;;;5.24;85.31;99793.84;5032625;28;20225;-67
2023/03/20 03:34:32;;;;;;;0.60;0.60;;;;;;;5.22;85.48;99793.00;5027266;28;20295;-66
2023/03/20 03:37:06;;;;;;;0.60;0.60;;;;;;;5.19;85.37;99800.66;5022915;28;20197;-67
2023/03/20 03:39:41;;;;;;;0.57;0.57;;;;;;;5.18;85.22;99793.84;5030477;28;20192;-66
2023/03/20 03:42:19;;;;;;;0.63;0.63;;;;;;;5.15;84.96;99795.56;5032086;28;20209;-67
2023/03/20 03:44:54;;;;;;;0.70;0.70;;;;;;;5.03;84.42;99781.19;5028630;28;20649;-67
2023/03/20 03:47:25;;;;;;;0.60;0.60;;;;;;;5.10;84.30;99805.75;5032288;28;20293;-67
2023/03/20 03:50:00;;;;;;;0.70;0.70;;;;;;;5.11;84.14;99806.56;5031904;28;20673;-66
2023/03/20 03:52:31;;;;;;;0.60;0.60;;;;;;;5.08;84.04;99807.44;5031374;28;20197;-66
2023/03/20 03:55:03;;;;;;;0.63;0.63;;;;;;;5.03;84.25;99798.97;5029547;28;20249;-66
2023/03/20 03:57:32;;;;;;;1.17;1.17;;;;;;;4.89;84.20;99787.13;5032231;28;20201;-66
2023/03/20 04:00:03;;;;;;;0.60;0.60;;;;;;;5.01;84.28;99808.28;5031930;28;20210;-66
2023/03/20 04:02:31;;;;;;;0.60;0.60;;;;;;;4.96;84.11;99810.00;5031992;28;20193;-67
2023/03/20 04:04:59;;;;;;;0.60;0.60;;;;;;;4.88;84.68;99808.31;5029954;28;20201;-67
2023/03/20 04:07:28;;;;;;;0.70;0.70;;;;;;;4.78;84.99;99798.16;5023362;28;20661;-66
2023/03/20 04:09:55;;;;;;;0.70;0.70;;;;;;;4.70;84.66;99786.31;5032047;28;20201;-66
2023/03/20 04:12:35;;;;;;;0.70;0.70;;;;;;;4.85;85.05;99813.41;5031434;28;20208;-66
2023/03/20 04:15:02;;;;;;;0.60;0.60;;;;;;;4.76;85.02;99794.78;5025691;28;20216;-67
2023/03/20 04:17:30;;;;;;;0.70;0.70;;;;;;;4.83;84.64;99803.22;5028628;28;20301;-66
2023/03/20 04:19:57;;;;;;;0.63;0.63;;;;;;;4.79;84.90;99801.53;5031823;28;20638;-66
2023/03/20 04:22:23;;;;;;;0.60;0.60;;;;;;;4.74;84.55;99796.47;5030291;28;20197;-66
2023/03/20 04:24:51;;;;;;;0.87;0.87;;;;;;;4.74;84.66;99791.41;5027688;28;20673;-67
2023/03/20 04:27:18;;;;;;;0.53;0.53;;;;;;;4.74;84.87;99805.78;5031466;28;20201;-66
2023/03/20 04:29:46;;;;;;;0.70;0.70;;;;;;;4.70;85.17;99797.31;5028453;28;20202;-66
2023/03/20 04:32:13;;;;;;;0.60;0.60;;;;;;;4.67;85.11;99796.47;5028215;28;20232;-66
2023/03/20 04:34:40;;;;;;;0.50;0.50;;;;;;;4.60;85.15;99782.94;5029698;28;20209;-66
2023/03/20 04:37:07;;;;;;;0.50;0.50;;;;;;;4.68;85.42;99801.56;5031128;28;20201;-66
2023/03/20 04:39:35;;;;;;;0.70;0.70;;;;;;;4.69;85.69;99797.31;5030431;28;20194;-67
2023/03/20 04:42:02;;;;;;;0.80;0.80;;;;;;;4.70;85.80;99801.53;5026712;28;20198;-66
2023/03/20 04:44:29;;;;;;;0.77;0.77;;;;;;;4.68;85.52;99799.03;5028477;28;20220;-66
2023/03/20 04:46:57;;;;;;;0.70;0.70;;;;;;;4.61;85.89;99793.94;5028475;28;20197;-66
2023/03/20 04:49:24;;;;;;;1.00;1.00;;;;;;;4.62;86.06;99791.38;5028591;28;20574;-66
2023/03/20 04:51:51;;;;;;;0.90;0.90;;;;;;;4.59;86.11;99795.59;5029112;28;20201;-66
2023/03/20 04:54:18;;;;;;;0.60;0.60;;;;;;;4.60;86.34;99804.91;5030636;28;20680;-66
2023/03/20 04:56:45;;;;;;;0.70;0.70;;;;;;;4.61;86.86;99811.69;5031141;28;20225;-66
2023/03/20 04:59:12;;;;;;;0.77;0.77;;;;;;;4.63;87.01;99817.63;5027799;28;20275;-66
2023/03/20 05:01:39;;;;;;;0.70;0.70;;;;;;;4.66;86.95;99817.63;5026308;28;20197;-67
2023/03/20 05:04:07;;;;;;;0.80;0.80;;;;;;;4.71;87.29;99815.94;5024690;28;20562;-66
2023/03/20 05:06:34;;;;;;;0.80;0.80;;;;;;;4.72;87.54;99815.06;5030899;28;20198;-66
2023/03/20 05:09:01;;;;;;;0.63;0.63;;;;;;;4.72;87.60;99812.53;5026826;28;20197;-66
2023/03/20 05:11:29;;;;;;;0.77;0.77;;;;;;;4.77;87.96;99813.41;5020756;28;20597;-66
2023/03/20 05:13:56;;;;;;;0.70;0.70;;;;;;;4.82;87.96;99823.53;5024980;28;20212;-66
2023/03/20 05:16:22;;;;;;;0.50;0.50;;;;;;;4.86;88.43;99815.94;5026598;28;20213;-66
2023/03/20 05:18:49;;;;;;;0.50;0.50;;;;;;;4.96;88.75;99810.00;5029789;28;20212;-66
2023/03/20 05:21:17;;;;;;;0.60;0.60;;;;;;;5.04;88.74;99815.06;5030049;28;20291;-66
2023/03/20 05:23:44;;;;;;;0.93;0.93;;;;;;;5.16;88.67;99815.91;5030395;28;20205;-67
2023/03/20 05:26:11;;;;;;;0.50;0.50;;;;;;;5.32;88.02;99815.84;5030316;28;20662;-66
2023/03/20 05:28:38;;;;;;;0.67;0.67;;;;;;;5.44;87.76;99810.72;5028427;28;20205;-66
2023/03/20 05:31:05;;;;;;;0.57;0.57;;;;;;;5.44;87.57;99787.84;5029175;28;20237;-66
2023/03/20 05:33:32;;;;;;;0.60;0.60;;;;;;;5.64;86.38;99808.97;5046480;28;20704;-66
2023/03/20 05:35:59;;;;;;;0.67;0.67;;;;;;;5.71;86.70;99806.41;5046726;28;20224;-66
2023/03/20 05:38:27;;;;;;;0.70;0.70;;;;;;;5.88;87.41;99808.06;5029697;28;20197;-67
2023/03/20 05:40:58;;;;;;;0.63;0.63;;;;;;;6.09;87.62;99818.97;5029727;28;20689;-67
2023/03/20 05:43:25;;;;;;;1.20;1.20;;;;;;;6.29;87.45;99817.16;5030289;28;20251;-66
2023/03/20 05:45:53;;;;;;;0.53;0.53;;;;;;;6.44;86.18;99805.16;5030476;28;20616;-67
2023/03/20 05:48:20;;;;;;;0.60;0.60;;;;;;;6.71;85.02;99821.09;5029950;28;20220;-66
2023/03/20 05:50:47;;;;;;;0.70;0.70;;;;;;;6.86;84.24;99820.13;5032761;28;20577;-67
2023/03/20 05:53:14;;;;;;;0.80;0.80;;;;;;;7.01;83.60;99807.22;5031562;28;20220;-66
2023/03/20 05:55:43;;;;;;;2.43;1.27;;;;;;;7.26;82.97;99811.25;5049942;28;20243;-67
2023/03/20 05:58:10;;;;;;;0.60;0.60;;;;;;;7.47;82.01;99814.41;5050080;28;20200;-67
2023/03/20 06:00:37;;;;;;;0.60;0.60;;;;;;;7.58;81.95;99823.66;5037657;28;20211;-67
2023/03/20 06:03:05;;;;;;;0.60;0.60;;;;;;;7.63;81.52;99795.53;5041595;28;20204;-67
2023/03/20 06:05:32;;;;;;;0.60;0.60;;;;;;;7.81;81.59;99821.69;5027594;28;20239;-66
2023/03/20 06:07:59;;;;;;;0.50;0.50;;;;;;;7.85;81.44;99823.31;5028085;28;20666;-66
2023/03/20 06:10:26;;;;;;;0.60;0.60;;;;;;;7.90;83.06;99830.91;5045734;28;20623;-66
2023/03/20 06:12:55;;;;;;;0.70;0.70;;;;;;;7.96;82.78;99805.31;5045720;28;20200;-67
2023/03/20 06:15:22;;;;;;;0.57;0.57;;;;;;;8.10;81.17;99825.56;5033484;28;20271;-67
2023/03/20 06:17:48;;;;;;;0.90;0.90;;;;;;;8.10;81.95;99823.84;5028213;28;20204;-66
2023/03/20 06:20:15;;;;;;;0.40;0.40;;;;;;;8.16;82.05;99818.66;5022252;28;20252;-67
2023/03/20 06:22:42;;;;;;;0.60;0.60;;;;;;;8.05;82.60;99807.75;5028430;28;20212;-67
2023/03/20 06:25:10;;;;;;;1.57;1.47;;;;;;;8.18;83.72;99811.81;5024411;28;20234;-67
2023/03/20 06:27:37;;;;;;;0.70;0.70;;;;;;;8.10;83.98;99807.69;5025812;28;20209;-67
2023/03/20 06:30:06;;;;;;;1.10;1.10;;;;;;;7.85;86.37;99817.38;5024674;28;20210;-69
2023/03/20 06:32:33;;;;;;;0.60;0.60;;;;;;;7.81;88.22;99810.63;5028830;28;20705;-69
2023/03/20 06:35:00;;;;;;;0.60;0.60;;;;;;;7.87;89.37;99806.28;5029513;28;20202;-66
2023/03/20 06:37:27;;;;;;;0.87;0.87;;;;;;;8.18;89.04;99809.25;5036714;28;20201;-67
2023/03/20 06:39:53;;;;;;;1.10;1.10;;;;;;;8.38;89.13;99804.75;5033878;28;20228;-66
2023/03/20 06:42:20;;;;;;;0.53;0.53;;;;;;;8.47;88.31;99803.75;5034751;28;20205;-66
2023/03/20 06:44:47;;;;;;;0.80;0.80;;;;;;;8.64;87.84;99811.16;5038156;28;20279;-65
2023/03/20 06:47:16;;;;;;;0.60;0.60;;;;;;;8.85;87.64;99803.16;5035368;28;20199;-66
2023/03/20 06:49:43;;;;;;;0.50;0.50;;;;;;;8.95;86.88;99784.22;5038636;28;20622;-67
2023/03/20 06:52:16;;;;;;;0.50;0.50;;;;;;;9.17;88.69;99803.44;5040319;28;20189;-67
2023/03/20 06:54:43;;;;;;;0.60;0.60;;;;;;;9.22;87.96;99801.63;5041724;28;20205;-66
2023/03/20 06:57:10;;;;;;;0.50;0.50;;;;;;;9.26;87.46;99808.41;5043311;28;20279;-66
2023/03/20 06:59:37;;;;;;;0.60;0.60;;;;;;;9.36;86.64;99794.56;5030235;28;20229;-68
2023/03/20 07:02:04;;;;;;;0.70;0.70;;;;;;;9.42;86.68;99784.22;5031541;28;20213;-68
2023/03/20 07:04:32;;;;;;;0.47;0.47;;;;;;;9.80;86.38;99803.91;5029617;28;20587;-64
2023/03/20 07:06:59;;;;;;;0.43;0.43;;;;;;;10.02;84.96;99806.84;5037726;28;20208;-64
2023/03/20 07:09:26;;;;;;;0.53;0.53;;;;;;;10.10;84.32;99802.44;5039435;28;20232;-67
2023/03/20 07:11:53;;;;;;;1.27;1.17;;;;;;;10.26;84.01;99806.38;5042186;28;20216;-66
2023/03/20 07:14:21;;;;;;;0.70;0.70;;;;;;;10.35;83.20;99810.44;5039784;28;20267;-67
2023/03/20 07:16:48;;;;;;;0.70;0.70;;;;;;;10.49;82.29;99809.25;5042530;28;20282;-66
2023/03/20 07:19:15;;;;;;;0.50;0.50;;;;;;;10.79;83.44;99806.84;5037946;28;20451;-75
2023/03/20 07:21:43;;;;;;;0.60;0.60;;;;;;;10.86;82.73;99782.69;5036286;28;20200;-75
2023/03/20 07:24:10;;;;;;;1.07;1.00;;;;;;;11.27;80.67;99810.72;5039705;28;20197;-76
2023/03/20 07:26:38;;;;;;;0.80;0.80;;;;;;;11.25;80.20;99794.50;5032710;28;20205;-74
2023/03/20 07:29:05;;;;;;;0.40;0.40;;;;;;;11.24;80.12;99805.66;5032464;28;20596;-75
2023/03/20 07:31:32;;;;;;;3.20;1.00;;;;;;;11.43;79.89;99801.72;5039876;28;20669;-75
2023/03/20 07:33:59;;;;;;;4.83;1.10;;;;;;;11.66;79.37;99800.25;5033126;28;20299;-75
2023/03/20 07:36:26;;;;;;;1.17;1.17;;;;;;;11.83;77.48;99790.34;5033905;28;20232;-75
2023/03/20 07:38:54;;;;;;;0.47;0.47;;;;;;;11.77;78.20;99798.22;5042623;28;20209;-75
2023/03/20 07:41:21;;;;;;;0.60;0.60;;;;;;;11.79;78.18;99799.06;5043310;28;20211;-76
2023/03/20 07:43:47;;;;;;;0.50;0.50;;;;;;;11.96;78.24;99796.81;5031918;28;20205;-76
2023/03/20 07:46:14;;;;;;;0.70;0.70;;;;;;;12.05;78.84;99796.56;5045869;28;20197;-76
2023/03/20 07:48:41;;;;;;;0.57;0.57;;;;;;;12.12;78.59;99787.75;5040490;28;20223;-75
2023/03/20 07:51:08;;;;;;;0.60;0.60;;;;;;;12.33;77.06;99776.84;5036376;28;20212;-76
2023/03/20 07:53:35;;;;;;;0.77;0.77;;;;;;;12.57;76.83;99776.03;5029953;28;20451;-65
2023/03/20 07:56:04;;;;;;;0.50;0.50;;;;;;;12.67;75.92;99780.88;5028347;28;21005;-66
2023/03/20 07:58:31;;;;;;;1.00;0.87;;;;;;;12.81;76.32;99779.56;5038420;28;20296;-66
2023/03/20 08:00:58;;;;;;;0.67;0.67;;;;;;;12.75;76.71;99778.91;5033762;28;20209;-64
2023/03/20 08:03:25;;;;;;;0.80;0.80;;;;;;;12.81;77.10;99776.13;5029901;28;20194;-63
2023/03/20 08:05:52;;;;;;;0.70;0.70;;;;;;;13.04;77.09;99782.22;5029109;28;20205;-64
2023/03/20 08:08:18;;;;;;;0.87;0.87;;;;;;;13.29;76.21;99782.22;5033859;28;20562;-64
2023/03/20 08:10:45;;;;;;;0.60;0.60;;;;;;;13.47;75.47;99778.16;5033445;28;20204;-64
2023/03/20 08:13:14;;;;;;;0.50;0.50;;;;;;;13.66;74.99;99780.03;5035382;28;20197;-64
2023/03/20 08:15:41;;;;;;;0.47;0.47;;;;;;;13.71;75.54;99774.69;5031791;28;20205;-64
2023/03/20 08:18:07;;;;;;;0.50;0.50;;;;;;;13.87;74.79;99774.94;5035890;28;20202;-64
2023/03/20 08:20:34;;;;;;;0.80;0.80;;;;;;;14.12;74.56;99775.69;5041424;28;20207;-64
2023/03/20 08:23:01;;;;;;;0.60;0.60;;;;;;;14.31;72.44;99775.84;5035191;28;20264;-64
2023/03/20 08:25:32;;;;;;;0.57;0.57;;;;;;;14.56;71.87;99784.31;5028636;28;20216;-64
2023/03/20 08:27:59;;;;;;;0.63;0.63;;;;;;;14.60;71.60;99778.94;5033054;28;20746;-64
2023/03/20 08:30:27;;;;;;;0.43;0.43;;;;;;;14.65;71.81;99771.03;5035098;28;20203;-64
2023/03/20 08:32:54;;;;;;;0.60;0.60;;;;;;;14.84;70.41;99771.09;5043827;28;20721;-64
2023/03/20 08:35:21;;;;;;;0.90;0.90;;;;;;;14.89;69.60;99774.34;5038433;28;20603;-64
2023/03/20 08:37:48;;;;;;;0.70;0.70;;;;;;;14.99;66.70;99779.03;5031633;28;20236;-64
2023/03/20 08:40:15;;;;;;;0.60;0.60;;;;;;;14.49;67.71;99763.06;5030118;28;20204;-64
2023/03/20 08:42:43;;;;;;;0.70;0.70;;;;;;;14.58;66.67;99756.69;5046637;28;20204;-64
2023/03/20 08:45:11;;;;;;;1.23;1.23;;;;;;;14.77;66.66;99759.34;5036138;28;20202;-69
2023/03/20 08:47:39;;;;;;;0.73;0.73;;;;;;;15.03;68.77;99761.69;5039328;28;20225;-65
2023/03/20 08:50:07;;;;;;;0.60;0.60;;;;;;;15.11;67.80;99754.47;5029658;28;20586;-65
2023/03/20 08:52:34;;;;;;;1.00;1.00;;;;;;;15.23;66.81;99764.25;5032302;28;20193;-65
2023/03/20 08:55:00;;;;;;;0.70;0.70;;;;;;;15.24;67.01;99760.78;5040460;28;20209;-64
2023/03/20 08:57:27;;;;;;;0.57;0.57;;;;;;;15.49;67.35;99751.06;5037746;28;20213;-64
2023/03/20 08:59:54;;;;;;;0.97;0.97;;;;;;;15.52;65.45;99748.34;5032955;28;20216;-64
2023/03/20 09:02:21;;;;;;;0.47;0.47;;;;;;;15.67;62.76;99752.81;5030376;28;20209;-64
2023/03/20 09:04:49;;;;;;;0.57;0.57;;;;;;;15.91;64.44;99742.28;5030612;28;20209;-62
2023/03/20 09:07:16;;;;;;;0.50;0.50;;;;;;;16.10;63.09;99749.09;5039848;28;20200;-63
2023/03/20 09:09:42;;;;;;;0.57;0.57;;;;;;;16.16;62.33;99745.38;5035903;28;20201;-67
2023/03/20 09:12:09;;;;;;;0.60;0.60;;;;;;;16.24;63.08;99745.88;5031070;28;20275;-62
2023/03/20 09:14:37;;;;;;;0.50;0.50;;;;;;;16.29;61.26;99742.16;5028203;28;20271;-63
2023/03/20 09:17:04;;;;;;;0.47;0.47;;;;;;;16.35;60.12;99738.41;5035375;28;20244;-63
2023/03/20 09:19:31;;;;;;;0.50;0.50;;;;;;;16.50;59.34;99736.84;5038604;28;20211;-63
2023/03/20 09:22:00;;;;;;;0.50;0.50;;;;;;;16.45;58.59;99726.72;5044006;28;20205;-63
2023/03/20 09:24:28;;;;;;;0.50;0.50;;;;;;;16.62;58.34;99731.94;5033236;28;20724;-63
2023/03/20 09:26:54;;;;;;;0.50;0.50;;;;;;;16.72;57.95;99730.56;5027271;28;20652;-63
2023/03/20 09:29:21;;;;;;;0.50;0.50;;;;;;;16.75;56.40;99732.16;5031422;28;20666;-63
2023/03/20 09:31:48;;;;;;;0.50;0.50;;;;;;;16.80;58.06;99725.03;5029396;28;20209;-63
2023/03/20 09:34:15;;;;;;;0.53;0.53;;;;;;;16.81;59.46;99731.84;5035577;28;20263;-63
2023/03/20 09:36:42;;;;;;;0.60;0.60;;;;;;;16.95;57.61;99720.81;5035326;28;20229;-63
2023/03/20 09:39:10;;;;;;;0.60;0.60;;;;;;;16.88;57.80;99711.66;5032851;28;20215;-63
2023/03/20 09:41:38;;;;;;;0.93;0.93;;;;;;;16.99;56.86;99725.75;5032212;28;20213;-63
2023/03/20 09:44:19;;;;;;;0.70;0.70;;;;;;;16.84;56.97;99720.50;5031037;28;20205;-65
2023/03/20 09:46:59;;;;;;;0.40;0.40;;;;;;;16.62;57.37;99721.59;5033713;28;20653;-65
2023/03/20 09:49:39;;;;;;;0.57;0.57;;;;;;;16.90;56.30;99707.25;5030220;28;20197;-65
2023/03/20 09:52:17;;;;;;;0.50;0.50;;;;;;;16.88;56.95;99701.31;5026636;28;20212;-65
2023/03/20 09:54:49;;;;;;;1.10;1.10;;;;;;;16.89;57.79;99698.66;5025423;28;20205;-65
2023/03/20 09:57:21;;;;;;;0.50;0.50;;;;;;;16.85;58.00;99697.13;5030937;28;20299;-65
2023/03/20 09:59:50;;;;;;;1.50;0.80;;;;;;;17.03;56.45;99695.31;5029707;28;20614;-65
2023/03/20 10:02:23;;;;;;;0.60;0.60;;;;;;;17.18;55.84;99684.19;5032834;28;20209;-65
2023/03/20 10:04:53;;;;;;;0.90;0.90;;;;;;;17.38;55.65;99683.97;5028086;28;20232;-65
2023/03/20 10:07:20;;;;;;;0.43;0.43;;;;;;;17.44;55.57;99675.88;5029609;28;20293;-65
2023/03/20 10:09:48;;;;;;;0.50;0.50;;;;;;;17.48;55.49;99672.19;5023214;28;20202;-65
2023/03/20 10:12:29;;;;;;;0.40;0.40;;;;;;;17.24;54.58;99673.50;5027308;28;20696;-65
2023/03/20 10:15:03;;;;;;;0.40;0.40;;;;;;;17.31;54.49;99674.84;5027966;28;21063;-65
2023/03/20 10:17:40;;;;;;;0.90;0.90;;;;;;;17.30;54.67;99653.28;5028968;28;20220;-65
2023/03/20 10:20:13;;;;;;;0.40;0.40;;;;;;;17.60;53.50;99662.94;5026125;28;20197;-66
2023/03/20 10:22:45;;;;;;;0.50;0.50;;;;;;;17.68;52.40;99664.19;5031139;28;20663;-66
2023/03/20 10:25:23;;;;;;;0.80;0.80;;;;;;;17.88;54.49;99655.31;5036741;28;20212;-66
2023/03/20 10:27:55;;;;;;;0.70;0.70;;;;;;;17.87;53.59;99647.63;5033450;28;20203;-64
2023/03/20 10:30:32;;;;;;;0.67;0.67;;;;;;;17.80;54.54;99642.75;5041955;28;20196;-64
2023/03/20 10:33:10;;;;;;;0.50;0.50;;;;;;;17.61;52.41;99642.09;5042726;28;20235;-64
2023/03/20 10:35:43;;;;;;;0.60;0.60;;;;;;;17.69;54.70;99639.94;5040212;28;20215;-64
2023/03/20 10:38:23;;;;;;;0.77;0.77;;;;;;;17.79;54.13;99624.72;5045315;28;20285;-66
2023/03/20 10:40:52;;;;;;;1.23;1.23;;;;;;;17.89;55.07;99620.69;5027925;28;20305;-67
2023/03/20 10:43:23;;;;;;;0.73;0.73;;;;;;;17.95;54.33;99624.69;5031612;28;20608;-65
2023/03/20 10:45:54;;;;;;;0.70;0.70;;;;;;;18.06;53.89;99617.94;5028599;28;20217;-65
2023/03/20 10:48:25;;;;;;;0.70;0.70;;;;;;;18.13;55.12;99619.25;5025704;28;20214;-65
2023/03/20 10:50:56;;;;;;;0.60;0.60;;;;;;;18.20;54.00;99606.78;5030988;28;20216;-65
2023/03/20 10:53:36;;;;;;;0.50;0.50;;;;;;;18.19;53.17;99610.31;5043546;28;20339;-65
2023/03/20 10:56:08;;;;;;;0.77;0.77;;;;;;;18.22;52.53;99604.94;5035384;28;20204;-65
2023/03/20 10:58:39;;;;;;;0.70;0.70;;;;;;;18.30;51.73;99594.94;5053503;28;20210;-65
2023/03/20 11:01:06;;;;;;;0.60;0.60;;;;;;;18.24;52.75;99595.31;5053389;28;20202;-65
2023/03/20 11:03:38;;;;;;;0.50;0.50;;;;;;;18.31;52.95;99588.84;5039720;28;20209;-65
2023/03/20 11:06:09;;;;;;;0.43;0.43;;;;;;;18.32;52.74;99580.09;5033265;28;20629;-65
2023/03/20 11:08:39;;;;;;;0.87;0.87;;;;;;;18.46;52.18;99574.09;5031868;28;20201;-65
2023/03/20 11:11:08;;;;;;;0.40;0.40;;;;;;;18.52;50.34;99568.56;5032194;28;20621;-65
2023/03/20 11:13:38;;;;;;;0.40;0.40;;;;;;;18.51;50.46;99567.75;5034626;28;20197;-65
2023/03/20 11:16:11;;;;;;;0.90;0.90;;;;;;;18.68;51.13;99558.94;5049836;28;20645;-65
2023/03/20 11:18:41;;;;;;;0.50;0.50;;;;;;;18.77;51.69;99554.00;5033569;28;20218;-65
2023/03/20 11:21:15;;;;;;;0.50;0.50;;;;;;;18.80;49.60;99540.84;5031944;28;20294;-64
2023/03/20 11:23:42;;;;;;;1.13;1.13;;;;;;;18.83;50.58;99548.47;5031841;28;20222;-64
2023/03/20 11:26:15;;;;;;;0.60;0.60;;;;;;;18.94;49.75;99539.16;5032740;28;20199;-64
2023/03/20 11:28:48;;;;;;;2.33;1.40;;;;;;;18.95;48.85;99535.63;5040033;28;20263;-64
2023/03/20 11:31:20;;;;;;;0.73;0.73;;;;;;;19.06;49.81;99533.22;5039669;28;20555;-65
2023/03/20 11:34:00;;;;;;;0.60;0.60;;;;;;;18.98;50.34;99530.25;5032485;28;20226;-62
2023/03/20 11:36:29;;;;;;;0.60;0.60;;;;;;;19.04;49.55;99519.47;5001592;28;20209;-63
2023/03/20 11:39:04;;;;;;;0.60;0.60;;;;;;;19.14;48.92;99513.59;5024000;28;20254;-63
2023/03/20 11:41:33;;;;;;;0.50;0.50;;;;;;;19.09;50.79;99512.22;5024273;28;20201;-64
2023/03/20 11:44:00;;;;;;;1.23;0.70;;;;;;;19.13;52.34;99503.28;5017769;28;20232;-63
2023/03/20 11:46:27;;;;;;;0.47;0.47;;;;;;;19.15;50.61;99491.03;5022360;28;20684;-63
2023/03/20 11:49:20;;;;;;;0.87;0.87;;;;;;;19.33;47.75;99495.06;5024288;28;20662;-62
2023/03/20 11:51:47;;;;;;;0.50;0.50;;;;;;;19.36;47.28;99500.88;5028857;28;20207;-62